Aérodrome :
LOGIN :

S'inscrire | Disclaimer

   EN    FR    IT 

 










Légende :    VFR   VFR Marginal   IFR   IFR Intensif   IFR Très Intensif
Visi : 
Plafond : 
>= 8 km
>= 3000ft
5 à 8 km
1000 à 3000 ft
1500m à 5 km
500 à 1000 ft
800 à 1500m
200 à 500 ft
< 800m
< 200 ft
Symboles :   Orages  Brouillard  Fortes neiges  Fortes précipitations  Vent > 20 kt
SIGMETs :   Divers  Orages  Givrage  Turbulence  Onde Orograph.  Cendres Volcan.






- Altitude de l'aérodrome : 112 ft
- Code IATA : SVQ


LEZL - Sevilla San Pablo

DERNIER METAR :
  • 250130Z AUTO 26004KT 230V300 CAVOK 23/14 Q1022

METARs EXPIRÉS :
  • 250100Z AUTO VRB02KT CAVOK 22/12 Q1022
  • 250030Z AUTO 30002KT CAVOK 24/09 Q1022
  • 250000Z AUTO VRB01KT CAVOK 23/11 Q1022
  • 242330Z AUTO 24005KT 200V260 CAVOK 25/09 Q1022
  • 242300Z AUTO 23005KT CAVOK 25/09 Q1022

TAF TAF LEZL
Valide du 24 à 21h jusqu'au 25 à 21h UTC


242000Z 2421/2521 VRB02KT CAVOK TX36/2516Z TN20/2505Z
TEMPO 2421/2422 21010KT
BECMG 2516/2518 23010KT



MET'MAP, la Météo Aéronautique d'un coup d'oeil ! - Copyright ORBIFLY Décembre 2007 - Disclaimer

ORBIFLY MET'MAP TEAM :

Programmation & Développement : Alexandra Zaïnal
Sur une idée originale de : Baudouin d'Aumeries
Assistance à la programmation : Marc-Olivier Méhu
Soutien technique & logistique : Manuel Goepfert

Contact : metmap@orbifly.com




SOURCES & CREDITS :

   NOAA